sensor_id;sensor_type;location;lat;lon;timestamp;temperature;humidity
51215;DHT22;63849;47.546;19.254;2022-12-05T00:00:14;5.90;82.40
51215;DHT22;63849;47.546;19.254;2022-12-05T00:02:40;5.90;82.50
51215;DHT22;63849;47.546;19.254;2022-12-05T00:05:06;5.90;82.60
51215;DHT22;63849;47.546;19.254;2022-12-05T00:07:32;5.90;82.50
51215;DHT22;63849;47.546;19.254;2022-12-05T00:09:58;5.90;82.40
51215;DHT22;63849;47.546;19.254;2022-12-05T00:12:24;6.00;82.20
51215;DHT22;63849;47.546;19.254;2022-12-05T00:14:50;5.90;82.00
51215;DHT22;63849;47.546;19.254;2022-12-05T00:17:16;5.90;82.10
51215;DHT22;63849;47.546;19.254;2022-12-05T00:19:41;5.90;82.10
51215;DHT22;63849;47.546;19.254;2022-12-05T00:22:07;5.90;82.20
51215;DHT22;63849;47.546;19.254;2022-12-05T00:24:33;5.80;82.40
51215;DHT22;63849;47.546;19.254;2022-12-05T00:26:59;5.90;82.40
51215;DHT22;63849;47.546;19.254;2022-12-05T00:29:25;5.80;82.30
51215;DHT22;63849;47.546;19.254;2022-12-05T00:31:50;5.80;82.20
51215;DHT22;63849;47.546;19.254;2022-12-05T00:34:16;5.80;82.20
51215;DHT22;63849;47.546;19.254;2022-12-05T00:36:42;5.80;82.40
51215;DHT22;63849;47.546;19.254;2022-12-05T00:39:10;5.80;82.30
51215;DHT22;63849;47.546;19.254;2022-12-05T00:41:39;5.90;82.30
51215;DHT22;63849;47.546;19.254;2022-12-05T00:44:05;5.90;82.30
51215;DHT22;63849;47.546;19.254;2022-12-05T00:46:32;5.90;82.20
51215;DHT22;63849;47.546;19.254;2022-12-05T00:48:59;5.90;82.00
51215;DHT22;63849;47.546;19.254;2022-12-05T00:51:28;5.80;82.20
51215;DHT22;63849;47.546;19.254;2022-12-05T00:53:57;5.80;82.50
51215;DHT22;63849;47.546;19.254;2022-12-05T00:56:25;5.80;82.40
51215;DHT22;63849;47.546;19.254;2022-12-05T00:58:54;5.80;82.50
51215;DHT22;63849;47.546;19.254;2022-12-05T01:01:31;5.80;82.50
51215;DHT22;63849;47.546;19.254;2022-12-05T01:03:59;5.80;82.50
51215;DHT22;63849;47.546;19.254;2022-12-05T01:06:26;5.80;82.30
51215;DHT22;63849;47.546;19.254;2022-12-05T01:08:54;5.80;82.30
51215;DHT22;63849;47.546;19.254;2022-12-05T01:11:20;5.70;82.50
51215;DHT22;63849;47.546;19.254;2022-12-05T01:13:46;5.80;82.50
51215;DHT22;63849;47.546;19.254;2022-12-05T01:16:22;5.80;82.30
51215;DHT22;63849;47.546;19.254;2022-12-05T01:18:48;5.90;82.20
51215;DHT22;63849;47.546;19.254;2022-12-05T01:21:14;5.80;82.00
51215;DHT22;63849;47.546;19.254;2022-12-05T01:23:40;5.70;82.10
51215;DHT22;63849;47.546;19.254;2022-12-05T01:26:12;5.70;82.20
51215;DHT22;63849;47.546;19.254;2022-12-05T01:28:39;5.80;81.90
51215;DHT22;63849;47.546;19.254;2022-12-05T01:31:40;5.80;82.00
51215;DHT22;63849;47.546;19.254;2022-12-05T01:34:01;5.80;82.20
51215;DHT22;63849;47.546;19.254;2022-12-05T01:36:28;5.80;82.00
51215;DHT22;63849;47.546;19.254;2022-12-05T01:38:54;5.80;82.20
51215;DHT22;63849;47.546;19.254;2022-12-05T01:41:23;5.80;82.50
51215;DHT22;63849;47.546;19.254;2022-12-05T01:46:48;5.70;82.90
51215;DHT22;63849;47.546;19.254;2022-12-05T01:49:20;5.70;82.70
51215;DHT22;63849;47.546;19.254;2022-12-05T01:51:50;5.70;82.80
51215;DHT22;63849;47.546;19.254;2022-12-05T01:54:18;5.70;83.00
51215;DHT22;63849;47.546;19.254;2022-12-05T01:56:51;5.70;83.20
51215;DHT22;63849;47.546;19.254;2022-12-05T01:59:19;5.70;83.10
51215;DHT22;63849;47.546;19.254;2022-12-05T02:01:46;5.70;83.60
51215;DHT22;63849;47.546;19.254;2022-12-05T02:04:12;5.70;83.30
51215;DHT22;63849;47.546;19.254;2022-12-05T02:06:38;5.70;83.60
51215;DHT22;63849;47.546;19.254;2022-12-05T02:09:03;5.70;83.30
51215;DHT22;63849;47.546;19.254;2022-12-05T02:11:31;5.60;83.70
51215;DHT22;63849;47.546;19.254;2022-12-05T02:17:00;5.60;83.90
51215;DHT22;63849;47.546;19.254;2022-12-05T02:22:41;5.70;84.20
51215;DHT22;63849;47.546;19.254;2022-12-05T02:31:16;5.70;84.00
51215;DHT22;63849;47.546;19.254;2022-12-05T02:33:58;5.70;84.20
51215;DHT22;63849;47.546;19.254;2022-12-05T02:37:00;5.70;84.40
51215;DHT22;63849;47.546;19.254;2022-12-05T02:42:08;5.60;84.50
51215;DHT22;63849;47.546;19.254;2022-12-05T02:44:51;5.70;84.30
51215;DHT22;63849;47.546;19.254;2022-12-05T02:47:20;5.60;84.40
51215;DHT22;63849;47.546;19.254;2022-12-05T02:49:47;5.60;84.40
51215;DHT22;63849;47.546;19.254;2022-12-05T02:52:16;5.50;84.50
51215;DHT22;63849;47.546;19.254;2022-12-05T02:54:45;5.60;84.50
51215;DHT22;63849;47.546;19.254;2022-12-05T02:57:13;5.70;84.50
51215;DHT22;63849;47.546;19.254;2022-12-05T02:59:40;5.60;84.30
51215;DHT22;63849;47.546;19.254;2022-12-05T03:02:08;5.60;84.20
51215;DHT22;63849;47.546;19.254;2022-12-05T03:04:34;5.70;84.30
51215;DHT22;63849;47.546;19.254;2022-12-05T03:07:09;5.70;84.10
51215;DHT22;63849;47.546;19.254;2022-12-05T03:09:42;5.70;84.00
51215;DHT22;63849;47.546;19.254;2022-12-05T03:12:26;5.70;83.70
51215;DHT22;63849;47.546;19.254;2022-12-05T03:15:02;5.80;83.80
51215;DHT22;63849;47.546;19.254;2022-12-05T03:17:53;5.70;83.90
51215;DHT22;63849;47.546;19.254;2022-12-05T03:20:28;5.60;83.90
51215;DHT22;63849;47.546;19.254;2022-12-05T03:22:58;5.60;83.90
51215;DHT22;63849;47.546;19.254;2022-12-05T03:25:33;5.70;84.20
51215;DHT22;63849;47.546;19.254;2022-12-05T03:28:13;5.60;84.20
51215;DHT22;63849;47.546;19.254;2022-12-05T03:30:42;5.50;84.10
51215;DHT22;63849;47.546;19.254;2022-12-05T03:33:20;5.70;84.00
51215;DHT22;63849;47.546;19.254;2022-12-05T03:36:12;5.60;84.00
51215;DHT22;63849;47.546;19.254;2022-12-05T03:38:48;5.70;84.00
51215;DHT22;63849;47.546;19.254;2022-12-05T03:46:36;5.70;84.20
51215;DHT22;63849;47.546;19.254;2022-12-05T03:49:12;5.70;84.00
51215;DHT22;63849;47.546;19.254;2022-12-05T03:52:07;5.70;84.30
51215;DHT22;63849;47.546;19.254;2022-12-05T03:54:45;5.70;84.20
51215;DHT22;63849;47.546;19.254;2022-12-05T03:59:51;5.60;84.40
51215;DHT22;63849;47.546;19.254;2022-12-05T04:02:38;5.60;84.60
51215;DHT22;63849;47.546;19.254;2022-12-05T04:08:34;5.50;84.70
51215;DHT22;63849;47.546;19.254;2022-12-05T04:10:39;5.60;84.70
51215;DHT22;63849;47.546;19.254;2022-12-05T04:13:42;5.70;84.50
51215;DHT22;63849;47.546;19.254;2022-12-05T04:16:26;5.70;84.50
51215;DHT22;63849;47.546;19.254;2022-12-05T04:22:24;5.60;84.50
51215;DHT22;63849;47.546;19.254;2022-12-05T04:24:52;5.60;84.90
51215;DHT22;63849;47.546;19.254;2022-12-05T04:27:55;5.70;84.80
51215;DHT22;63849;47.546;19.254;2022-12-05T04:30:45;5.70;84.70
51215;DHT22;63849;47.546;19.254;2022-12-05T04:36:12;5.60;84.80
51215;DHT22;63849;47.546;19.254;2022-12-05T04:38:49;5.60;84.90
51215;DHT22;63849;47.546;19.254;2022-12-05T04:41:27;5.70;84.90
51215;DHT22;63849;47.546;19.254;2022-12-05T04:43:57;5.60;85.10
51215;DHT22;63849;47.546;19.254;2022-12-05T04:46:24;5.50;85.30
51215;DHT22;63849;47.546;19.254;2022-12-05T04:49:01;5.50;85.40
51215;DHT22;63849;47.546;19.254;2022-12-05T04:51:30;5.50;85.30
51215;DHT22;63849;47.546;19.254;2022-12-05T04:54:06;5.50;85.20
51215;DHT22;63849;47.546;19.254;2022-12-05T04:56:35;5.60;85.30
51215;DHT22;63849;47.546;19.254;2022-12-05T04:59:02;5.70;85.10
51215;DHT22;63849;47.546;19.254;2022-12-05T05:01:52;5.60;85.10
51215;DHT22;63849;47.546;19.254;2022-12-05T05:04:40;5.60;85.20
51215;DHT22;63849;47.546;19.254;2022-12-05T05:07:11;5.60;85.30
51215;DHT22;63849;47.546;19.254;2022-12-05T05:09:38;5.60;85.30
51215;DHT22;63849;47.546;19.254;2022-12-05T05:12:04;5.60;85.60
51215;DHT22;63849;47.546;19.254;2022-12-05T05:14:30;5.60;85.40
51215;DHT22;63849;47.546;19.254;2022-12-05T05:16:56;5.50;85.60
51215;DHT22;63849;47.546;19.254;2022-12-05T05:19:22;5.60;85.60
51215;DHT22;63849;47.546;19.254;2022-12-05T05:21:49;5.70;85.40
51215;DHT22;63849;47.546;19.254;2022-12-05T05:24:15;5.50;85.40
51215;DHT22;63849;47.546;19.254;2022-12-05T05:26:42;5.50;85.40
51215;DHT22;63849;47.546;19.254;2022-12-05T05:29:10;5.60;85.60
51215;DHT22;63849;47.546;19.254;2022-12-05T05:31:37;5.50;85.70
51215;DHT22;63849;47.546;19.254;2022-12-05T05:34:04;5.60;85.60
51215;DHT22;63849;47.546;19.254;2022-12-05T05:36:30;5.60;85.60
51215;DHT22;63849;47.546;19.254;2022-12-05T05:38:58;5.50;85.70
51215;DHT22;63849;47.546;19.254;2022-12-05T05:41:29;5.60;85.80
51215;DHT22;63849;47.546;19.254;2022-12-05T05:43:55;5.70;85.60
51215;DHT22;63849;47.546;19.254;2022-12-05T05:46:23;5.80;85.50
51215;DHT22;63849;47.546;19.254;2022-12-05T05:48:50;5.80;85.30
51215;DHT22;63849;47.546;19.254;2022-12-05T05:51:17;5.70;85.40
51215;DHT22;63849;47.546;19.254;2022-12-05T05:53:44;5.60;85.70
51215;DHT22;63849;47.546;19.254;2022-12-05T05:56:15;5.70;85.60
51215;DHT22;63849;47.546;19.254;2022-12-05T05:58:41;5.60;85.60
51215;DHT22;63849;47.546;19.254;2022-12-05T06:01:09;5.70;85.60
51215;DHT22;63849;47.546;19.254;2022-12-05T06:03:36;5.80;85.60
51215;DHT22;63849;47.546;19.254;2022-12-05T06:06:05;5.60;85.60
51215;DHT22;63849;47.546;19.254;2022-12-05T06:08:32;5.50;85.90
51215;DHT22;63849;47.546;19.254;2022-12-05T06:10:59;5.50;85.90
51215;DHT22;63849;47.546;19.254;2022-12-05T06:13:25;5.60;86.00
51215;DHT22;63849;47.546;19.254;2022-12-05T06:15:51;5.60;85.90
51215;DHT22;63849;47.546;19.254;2022-12-05T06:18:17;5.60;85.90
51215;DHT22;63849;47.546;19.254;2022-12-05T06:20:53;5.60;85.90
51215;DHT22;63849;47.546;19.254;2022-12-05T06:23:20;5.60;85.80
51215;DHT22;63849;47.546;19.254;2022-12-05T06:25:50;5.60;85.80
51215;DHT22;63849;47.546;19.254;2022-12-05T06:28:17;5.70;85.70
51215;DHT22;63849;47.546;19.254;2022-12-05T06:30:43;5.60;85.80
51215;DHT22;63849;47.546;19.254;2022-12-05T06:33:09;5.60;85.80
51215;DHT22;63849;47.546;19.254;2022-12-05T06:35:35;5.70;86.00
51215;DHT22;63849;47.546;19.254;2022-12-05T06:38:01;5.60;85.90
51215;DHT22;63849;47.546;19.254;2022-12-05T06:40:27;5.70;86.00
51215;DHT22;63849;47.546;19.254;2022-12-05T06:42:53;5.60;86.00
51215;DHT22;63849;47.546;19.254;2022-12-05T06:45:19;5.80;85.90
51215;DHT22;63849;47.546;19.254;2022-12-05T06:47:45;5.70;85.70
51215;DHT22;63849;47.546;19.254;2022-12-05T06:50:12;5.60;85.90
51215;DHT22;63849;47.546;19.254;2022-12-05T06:52:37;5.60;85.70
51215;DHT22;63849;47.546;19.254;2022-12-05T06:55:04;5.70;85.80
51215;DHT22;63849;47.546;19.254;2022-12-05T06:57:30;5.80;85.80
51215;DHT22;63849;47.546;19.254;2022-12-05T06:59:56;5.80;85.80
51215;DHT22;63849;47.546;19.254;2022-12-05T07:02:40;5.70;85.60
51215;DHT22;63849;47.546;19.254;2022-12-05T07:05:10;5.80;85.80
51215;DHT22;63849;47.546;19.254;2022-12-05T07:07:36;5.70;85.90
51215;DHT22;63849;47.546;19.254;2022-12-05T07:10:03;5.60;85.80
51215;DHT22;63849;47.546;19.254;2022-12-05T07:12:32;5.60;85.90
51215;DHT22;63849;47.546;19.254;2022-12-05T07:14:58;5.70;85.90
51215;DHT22;63849;47.546;19.254;2022-12-05T07:17:24;5.70;85.90
51215;DHT22;63849;47.546;19.254;2022-12-05T07:19:51;5.70;85.70
51215;DHT22;63849;47.546;19.254;2022-12-05T07:22:19;5.80;85.80
51215;DHT22;63849;47.546;19.254;2022-12-05T07:24:45;5.80;85.70
51215;DHT22;63849;47.546;19.254;2022-12-05T07:27:13;5.80;85.70
51215;DHT22;63849;47.546;19.254;2022-12-05T07:29:39;5.80;85.50
51215;DHT22;63849;47.546;19.254;2022-12-05T07:32:05;5.80;85.40
51215;DHT22;63849;47.546;19.254;2022-12-05T07:34:31;5.80;85.50
51215;DHT22;63849;47.546;19.254;2022-12-05T07:36:57;5.80;85.30
51215;DHT22;63849;47.546;19.254;2022-12-05T07:39:23;5.80;85.40
51215;DHT22;63849;47.546;19.254;2022-12-05T07:41:48;5.80;85.40
51215;DHT22;63849;47.546;19.254;2022-12-05T07:44:14;5.80;85.70
51215;DHT22;63849;47.546;19.254;2022-12-05T07:46:40;5.80;85.60
51215;DHT22;63849;47.546;19.254;2022-12-05T07:49:06;5.80;85.60
51215;DHT22;63849;47.546;19.254;2022-12-05T07:51:32;5.80;85.50
51215;DHT22;63849;47.546;19.254;2022-12-05T07:53:58;5.90;85.40
51215;DHT22;63849;47.546;19.254;2022-12-05T07:56:26;5.90;85.50
51215;DHT22;63849;47.546;19.254;2022-12-05T07:58:52;5.90;85.30
51215;DHT22;63849;47.546;19.254;2022-12-05T08:01:21;5.90;85.30
51215;DHT22;63849;47.546;19.254;2022-12-05T08:03:47;5.90;85.40
51215;DHT22;63849;47.546;19.254;2022-12-05T08:06:15;5.90;85.40
51215;DHT22;63849;47.546;19.254;2022-12-05T08:08:42;5.80;85.50
51215;DHT22;63849;47.546;19.254;2022-12-05T08:11:14;5.90;85.50
51215;DHT22;63849;47.546;19.254;2022-12-05T08:13:41;5.90;85.30
51215;DHT22;63849;47.546;19.254;2022-12-05T08:16:09;5.90;85.40
51215;DHT22;63849;47.546;19.254;2022-12-05T08:18:36;6.00;85.30
51215;DHT22;63849;47.546;19.254;2022-12-05T08:21:07;6.10;85.20
51215;DHT22;63849;47.546;19.254;2022-12-05T08:23:33;6.10;85.20
51215;DHT22;63849;47.546;19.254;2022-12-05T08:26:04;6.10;84.90
51215;DHT22;63849;47.546;19.254;2022-12-05T08:28:31;6.10;85.20
51215;DHT22;63849;47.546;19.254;2022-12-05T08:31:08;6.10;85.00
51215;DHT22;63849;47.546;19.254;2022-12-05T08:33:35;6.10;85.30
51215;DHT22;63849;47.546;19.254;2022-12-05T08:36:02;6.10;85.00
51215;DHT22;63849;47.546;19.254;2022-12-05T08:38:30;6.10;85.00
51215;DHT22;63849;47.546;19.254;2022-12-05T08:40:59;6.10;84.90
51215;DHT22;63849;47.546;19.254;2022-12-05T08:43:24;6.20;85.00
51215;DHT22;63849;47.546;19.254;2022-12-05T08:45:51;6.20;84.80
51215;DHT22;63849;47.546;19.254;2022-12-05T08:48:17;6.10;84.80
51215;DHT22;63849;47.546;19.254;2022-12-05T08:50:43;6.20;84.90
51215;DHT22;63849;47.546;19.254;2022-12-05T08:53:09;6.20;84.80
51215;DHT22;63849;47.546;19.254;2022-12-05T08:55:34;6.30;84.70
51215;DHT22;63849;47.546;19.254;2022-12-05T08:58:00;6.30;84.40
51215;DHT22;63849;47.546;19.254;2022-12-05T09:00:26;6.20;84.50
51215;DHT22;63849;47.546;19.254;2022-12-05T09:02:52;6.10;84.60
51215;DHT22;63849;47.546;19.254;2022-12-05T09:05:18;6.20;84.60
51215;DHT22;63849;47.546;19.254;2022-12-05T09:07:44;6.30;84.40
51215;DHT22;63849;47.546;19.254;2022-12-05T09:10:10;6.40;84.30
51215;DHT22;63849;47.546;19.254;2022-12-05T09:12:37;6.30;84.30
51215;DHT22;63849;47.546;19.254;2022-12-05T09:15:05;6.30;84.30
51215;DHT22;63849;47.546;19.254;2022-12-05T09:17:31;6.30;84.30
51215;DHT22;63849;47.546;19.254;2022-12-05T09:19:56;6.30;84.50
51215;DHT22;63849;47.546;19.254;2022-12-05T09:22:22;6.40;84.50
51215;DHT22;63849;47.546;19.254;2022-12-05T09:24:48;6.40;84.20
51215;DHT22;63849;47.546;19.254;2022-12-05T09:27:14;6.40;84.00
51215;DHT22;63849;47.546;19.254;2022-12-05T09:29:40;6.40;84.00
51215;DHT22;63849;47.546;19.254;2022-12-05T09:32:06;6.40;84.10
51215;DHT22;63849;47.546;19.254;2022-12-05T09:34:32;6.40;84.00
51215;DHT22;63849;47.546;19.254;2022-12-05T09:37:00;6.40;83.90
51215;DHT22;63849;47.546;19.254;2022-12-05T09:39:26;6.40;83.70
51215;DHT22;63849;47.546;19.254;2022-12-05T09:47:28;6.50;83.70
51215;DHT22;63849;47.546;19.254;2022-12-05T09:50:25;6.50;83.70
51215;DHT22;63849;47.546;19.254;2022-12-05T09:55:48;6.50;83.70
51215;DHT22;63849;47.546;19.254;2022-12-05T09:58:39;6.50;83.90
51215;DHT22;63849;47.546;19.254;2022-12-05T10:01:42;6.60;84.30
51215;DHT22;63849;47.546;19.254;2022-12-05T10:07:02;6.60;83.90
51215;DHT22;63849;47.546;19.254;2022-12-05T10:15:28;6.70;83.70
51215;DHT22;63849;47.546;19.254;2022-12-05T10:18:02;6.70;83.50
51215;DHT22;63849;47.546;19.254;2022-12-05T10:20:50;6.70;83.70
51215;DHT22;63849;47.546;19.254;2022-12-05T10:23:57;6.70;83.40
51215;DHT22;63849;47.546;19.254;2022-12-05T10:26:45;6.60;83.40
51215;DHT22;63849;47.546;19.254;2022-12-05T10:32:20;6.60;83.70
51215;DHT22;63849;47.546;19.254;2022-12-05T10:34:46;6.70;83.60
51215;DHT22;63849;47.546;19.254;2022-12-05T10:39:39;6.70;83.30
51215;DHT22;63849;47.546;19.254;2022-12-05T10:42:06;6.60;83.60
51215;DHT22;63849;47.546;19.254;2022-12-05T10:44:33;6.70;83.60
51215;DHT22;63849;47.546;19.254;2022-12-05T10:47:00;6.60;83.60
51215;DHT22;63849;47.546;19.254;2022-12-05T10:49:27;6.70;83.50
51215;DHT22;63849;47.546;19.254;2022-12-05T10:51:54;6.70;83.20
51215;DHT22;63849;47.546;19.254;2022-12-05T10:54:23;6.80;83.50
51215;DHT22;63849;47.546;19.254;2022-12-05T10:56:51;6.80;83.20
51215;DHT22;63849;47.546;19.254;2022-12-05T10:59:19;6.90;83.00
51215;DHT22;63849;47.546;19.254;2022-12-05T11:01:51;6.90;83.10
51215;DHT22;63849;47.546;19.254;2022-12-05T11:04:41;7.00;82.90
51215;DHT22;63849;47.546;19.254;2022-12-05T11:07:29;7.10;82.60
51215;DHT22;63849;47.546;19.254;2022-12-05T11:09:56;7.00;82.60
51215;DHT22;63849;47.546;19.254;2022-12-05T11:12:26;7.10;82.50
51215;DHT22;63849;47.546;19.254;2022-12-05T11:15:37;7.10;82.70
51215;DHT22;63849;47.546;19.254;2022-12-05T11:17:54;7.00;82.60
51215;DHT22;63849;47.546;19.254;2022-12-05T11:22:49;7.00;82.80
51215;DHT22;63849;47.546;19.254;2022-12-05T11:25:29;7.10;82.80
51215;DHT22;63849;47.546;19.254;2022-12-05T11:27:56;7.10;82.20
51215;DHT22;63849;47.546;19.254;2022-12-05T11:30:24;7.00;82.50
51215;DHT22;63849;47.546;19.254;2022-12-05T11:33:19;6.90;82.40
51215;DHT22;63849;47.546;19.254;2022-12-05T11:35:46;6.90;82.40
51215;DHT22;63849;47.546;19.254;2022-12-05T11:38:15;6.90;82.40
51215;DHT22;63849;47.546;19.254;2022-12-05T11:51:59;6.90;83.20
51215;DHT22;63849;47.546;19.254;2022-12-05T12:00:03;7.00;83.10
51215;DHT22;63849;47.546;19.254;2022-12-05T12:02:44;7.00;82.80
51215;DHT22;63849;47.546;19.254;2022-12-05T12:05:16;7.00;82.80
51215;DHT22;63849;47.546;19.254;2022-12-05T12:13:49;7.00;83.20
51215;DHT22;63849;47.546;19.254;2022-12-05T12:16:22;7.00;82.60
51215;DHT22;63849;47.546;19.254;2022-12-05T12:30:27;7.00;83.00
51215;DHT22;63849;47.546;19.254;2022-12-05T12:41:34;7.00;83.00
51215;DHT22;63849;47.546;19.254;2022-12-05T12:46:47;7.10;82.80
51215;DHT22;63849;47.546;19.254;2022-12-05T12:52:19;7.10;82.70
51215;DHT22;63849;47.546;19.254;2022-12-05T12:55:22;7.10;82.60
51215;DHT22;63849;47.546;19.254;2022-12-05T12:58:12;7.10;82.50
51215;DHT22;63849;47.546;19.254;2022-12-05T13:01:17;7.00;82.50
51215;DHT22;63849;47.546;19.254;2022-12-05T13:03:55;7.00;82.80
51215;DHT22;63849;47.546;19.254;2022-12-05T13:11:46;7.10;82.70
51215;DHT22;63849;47.546;19.254;2022-12-05T13:14:15;7.10;82.70
51215;DHT22;63849;47.546;19.254;2022-12-05T13:16:44;7.10;82.70
51215;DHT22;63849;47.546;19.254;2022-12-05T13:21:51;7.10;82.80
51215;DHT22;63849;47.546;19.254;2022-12-05T13:24:20;7.20;82.70
51215;DHT22;63849;47.546;19.254;2022-12-05T13:26:48;7.20;82.60
51215;DHT22;63849;47.546;19.254;2022-12-05T13:32:02;7.20;82.40
51215;DHT22;63849;47.546;19.254;2022-12-05T13:36:57;7.20;82.60
51215;DHT22;63849;47.546;19.254;2022-12-05T13:39:49;7.30;82.60
51215;DHT22;63849;47.546;19.254;2022-12-05T13:42:36;7.20;82.60
51215;DHT22;63849;47.546;19.254;2022-12-05T13:45:08;7.20;82.60
51215;DHT22;63849;47.546;19.254;2022-12-05T13:50:31;7.30;82.70
51215;DHT22;63849;47.546;19.254;2022-12-05T13:53:04;7.20;82.60
51215;DHT22;63849;47.546;19.254;2022-12-05T13:55:36;7.20;82.50
51215;DHT22;63849;47.546;19.254;2022-12-05T14:00:50;7.20;82.60
51215;DHT22;63849;47.546;19.254;2022-12-05T14:05:57;7.30;82.70
51215;DHT22;63849;47.546;19.254;2022-12-05T14:19:29;7.20;83.20
51215;DHT22;63849;47.546;19.254;2022-12-05T14:22:17;7.30;83.00
51215;DHT22;63849;47.546;19.254;2022-12-05T14:27:50;7.30;83.00
51215;DHT22;63849;47.546;19.254;2022-12-05T14:30:24;7.20;83.10
51215;DHT22;63849;47.546;19.254;2022-12-05T14:32:54;7.30;83.20
51215;DHT22;63849;47.546;19.254;2022-12-05T14:38:34;7.30;83.20
51215;DHT22;63849;47.546;19.254;2022-12-05T14:41:25;7.40;83.10
51215;DHT22;63849;47.546;19.254;2022-12-05T14:43:53;7.30;82.90
51215;DHT22;63849;47.546;19.254;2022-12-05T14:46:42;7.30;83.30
51215;DHT22;63849;47.546;19.254;2022-12-05T14:49:57;7.30;83.50
51215;DHT22;63849;47.546;19.254;2022-12-05T14:52:28;7.30;83.40
51215;DHT22;63849;47.546;19.254;2022-12-05T14:55:01;7.30;83.40
51215;DHT22;63849;47.546;19.254;2022-12-05T14:57:28;7.30;83.60
51215;DHT22;63849;47.546;19.254;2022-12-05T14:59:59;7.30;83.80
51215;DHT22;63849;47.546;19.254;2022-12-05T15:02:37;7.30;83.90
51215;DHT22;63849;47.546;19.254;2022-12-05T15:07:34;7.30;84.20
51215;DHT22;63849;47.546;19.254;2022-12-05T15:10:20;7.20;84.30
51215;DHT22;63849;47.546;19.254;2022-12-05T15:12:54;7.20;84.60
51215;DHT22;63849;47.546;19.254;2022-12-05T15:15:59;7.30;84.60
51215;DHT22;63849;47.546;19.254;2022-12-05T15:21:30;7.20;84.70
51215;DHT22;63849;47.546;19.254;2022-12-05T15:23:58;7.30;84.70
51215;DHT22;63849;47.546;19.254;2022-12-05T15:29:00;7.30;84.80
51215;DHT22;63849;47.546;19.254;2022-12-05T15:31:32;7.30;84.80
51215;DHT22;63849;47.546;19.254;2022-12-05T15:34:20;7.30;85.00
51215;DHT22;63849;47.546;19.254;2022-12-05T15:39:54;7.20;85.10
51215;DHT22;63849;47.546;19.254;2022-12-05T15:42:25;7.20;85.20
51215;DHT22;63849;47.546;19.254;2022-12-05T15:44:51;7.30;85.10
51215;DHT22;63849;47.546;19.254;2022-12-05T15:47:24;7.30;85.00
51215;DHT22;63849;47.546;19.254;2022-12-05T15:49:50;7.30;84.90
51215;DHT22;63849;47.546;19.254;2022-12-05T15:52:36;7.30;85.00
51215;DHT22;63849;47.546;19.254;2022-12-05T15:55:11;7.30;85.10
51215;DHT22;63849;47.546;19.254;2022-12-05T16:00:33;7.20;85.40
51215;DHT22;63849;47.546;19.254;2022-12-05T16:05:39;7.20;85.30
51215;DHT22;63849;47.546;19.254;2022-12-05T16:08:07;7.30;85.30
51215;DHT22;63849;47.546;19.254;2022-12-05T16:10:33;7.20;85.40
51215;DHT22;63849;47.546;19.254;2022-12-05T16:13:12;7.20;85.40
51215;DHT22;63849;47.546;19.254;2022-12-05T16:15:41;7.20;85.40
51215;DHT22;63849;47.546;19.254;2022-12-05T16:18:26;7.30;85.30
51215;DHT22;63849;47.546;19.254;2022-12-05T16:20:53;7.20;85.30
51215;DHT22;63849;47.546;19.254;2022-12-05T16:25:50;7.10;85.70
51215;DHT22;63849;47.546;19.254;2022-12-05T16:28:18;7.20;85.60
51215;DHT22;63849;47.546;19.254;2022-12-05T16:31:00;7.20;85.70
51215;DHT22;63849;47.546;19.254;2022-12-05T16:33:29;7.20;85.70
51215;DHT22;63849;47.546;19.254;2022-12-05T16:36:05;7.10;85.70
51215;DHT22;63849;47.546;19.254;2022-12-05T16:38:31;7.20;85.70
51215;DHT22;63849;47.546;19.254;2022-12-05T16:41:00;7.20;85.70
51215;DHT22;63849;47.546;19.254;2022-12-05T16:48:27;7.20;85.60
51215;DHT22;63849;47.546;19.254;2022-12-05T16:51:23;7.30;85.50
51215;DHT22;63849;47.546;19.254;2022-12-05T16:53:52;7.20;85.40
51215;DHT22;63849;47.546;19.254;2022-12-05T16:58:45;7.30;85.50
51215;DHT22;63849;47.546;19.254;2022-12-05T17:01:23;7.20;85.40
51215;DHT22;63849;47.546;19.254;2022-12-05T17:03:49;7.30;85.40
51215;DHT22;63849;47.546;19.254;2022-12-05T17:06:16;7.30;85.30
51215;DHT22;63849;47.546;19.254;2022-12-05T17:08:43;7.30;85.30
51215;DHT22;63849;47.546;19.254;2022-12-05T17:11:24;7.20;85.40
51215;DHT22;63849;47.546;19.254;2022-12-05T17:13:52;7.30;85.30
51215;DHT22;63849;47.546;19.254;2022-12-05T17:16:20;7.30;85.40
51215;DHT22;63849;47.546;19.254;2022-12-05T17:18:46;7.30;85.40
51215;DHT22;63849;47.546;19.254;2022-12-05T17:21:20;7.30;85.30
51215;DHT22;63849;47.546;19.254;2022-12-05T17:23:47;7.30;85.20
51215;DHT22;63849;47.546;19.254;2022-12-05T17:26:15;7.30;85.20
51215;DHT22;63849;47.546;19.254;2022-12-05T17:28:41;7.30;85.20
51215;DHT22;63849;47.546;19.254;2022-12-05T17:31:10;7.30;85.20
51215;DHT22;63849;47.546;19.254;2022-12-05T17:33:39;7.30;85.30
51215;DHT22;63849;47.546;19.254;2022-12-05T17:36:05;7.30;85.50
51215;DHT22;63849;47.546;19.254;2022-12-05T17:38:31;7.30;85.50
51215;DHT22;63849;47.546;19.254;2022-12-05T17:40:57;7.30;85.60
51215;DHT22;63849;47.546;19.254;2022-12-05T17:43:23;7.40;85.50
51215;DHT22;63849;47.546;19.254;2022-12-05T17:45:48;7.30;85.60
51215;DHT22;63849;47.546;19.254;2022-12-05T17:48:15;7.30;85.60
51215;DHT22;63849;47.546;19.254;2022-12-05T17:50:42;7.30;85.70
51215;DHT22;63849;47.546;19.254;2022-12-05T17:53:14;7.30;85.80
51215;DHT22;63849;47.546;19.254;2022-12-05T17:55:40;7.30;85.80
51215;DHT22;63849;47.546;19.254;2022-12-05T17:58:07;7.20;86.00
51215;DHT22;63849;47.546;19.254;2022-12-05T18:00:33;7.30;86.10
51215;DHT22;63849;47.546;19.254;2022-12-05T18:02:58;7.20;86.30
51215;DHT22;63849;47.546;19.254;2022-12-05T18:05:24;7.20;86.40
51215;DHT22;63849;47.546;19.254;2022-12-05T18:07:50;7.10;86.60
51215;DHT22;63849;47.546;19.254;2022-12-05T18:10:18;7.20;86.60
51215;DHT22;63849;47.546;19.254;2022-12-05T18:12:46;7.20;86.70
51215;DHT22;63849;47.546;19.254;2022-12-05T18:15:13;7.20;86.80
51215;DHT22;63849;47.546;19.254;2022-12-05T18:17:39;7.20;86.80
51215;DHT22;63849;47.546;19.254;2022-12-05T18:20:07;7.20;86.80
51215;DHT22;63849;47.546;19.254;2022-12-05T18:22:34;7.20;87.00
51215;DHT22;63849;47.546;19.254;2022-12-05T18:25:00;7.10;87.10
51215;DHT22;63849;47.546;19.254;2022-12-05T18:27:28;7.20;87.10
51215;DHT22;63849;47.546;19.254;2022-12-05T18:29:54;7.20;87.10
51215;DHT22;63849;47.546;19.254;2022-12-05T18:32:20;7.20;87.10
51215;DHT22;63849;47.546;19.254;2022-12-05T18:34:46;7.20;87.30
51215;DHT22;63849;47.546;19.254;2022-12-05T18:37:12;7.20;87.30
51215;DHT22;63849;47.546;19.254;2022-12-05T18:39:38;7.20;87.40
51215;DHT22;63849;47.546;19.254;2022-12-05T18:42:04;7.10;87.70
51215;DHT22;63849;47.546;19.254;2022-12-05T18:44:31;7.20;87.70
51215;DHT22;63849;47.546;19.254;2022-12-05T18:46:57;7.20;87.80